sensor_id;sensor_type;location;lat;lon;timestamp;pressure;altitude;pressure_sealevel;temperature;humidity
41947;BME280;27638;42.184;24.848;2023-06-14T00:00:31;99457.16;;;21.56;100.00
41947;BME280;27638;42.184;24.848;2023-06-14T00:02:56;99453.09;;;21.42;100.00
41947;BME280;27638;42.184;24.848;2023-06-14T00:05:22;99457.38;;;21.26;100.00
41947;BME280;27638;42.184;24.848;2023-06-14T00:07:48;99458.06;;;21.21;100.00
41947;BME280;27638;42.184;24.848;2023-06-14T00:10:14;99462.28;;;21.17;100.00
41947;BME280;27638;42.184;24.848;2023-06-14T00:12:40;99452.94;;;21.08;100.00
41947;BME280;27638;42.184;24.848;2023-06-14T00:15:07;99460.31;;;21.01;100.00
41947;BME280;27638;42.184;24.848;2023-06-14T00:17:35;99458.81;;;20.70;100.00
41947;BME280;27638;42.184;24.848;2023-06-14T00:20:02;99457.75;;;20.71;100.00
41947;BME280;27638;42.184;24.848;2023-06-14T00:22:29;99451.81;;;20.81;100.00
41947;BME280;27638;42.184;24.848;2023-06-14T00:24:56;99448.41;;;20.85;100.00
41947;BME280;27638;42.184;24.848;2023-06-14T00:27:21;99454.50;;;20.81;100.00
41947;BME280;27638;42.184;24.848;2023-06-14T00:29:46;99453.19;;;20.60;100.00
41947;BME280;27638;42.184;24.848;2023-06-14T00:32:12;99448.75;;;20.54;100.00
41947;BME280;27638;42.184;24.848;2023-06-14T00:34:37;99450.16;;;20.45;100.00
41947;BME280;27638;42.184;24.848;2023-06-14T00:37:03;99445.66;;;20.27;100.00
41947;BME280;27638;42.184;24.848;2023-06-14T00:39:28;99444.38;;;20.18;100.00
41947;BME280;27638;42.184;24.848;2023-06-14T00:41:54;99441.31;;;20.14;100.00
41947;BME280;27638;42.184;24.848;2023-06-14T00:44:20;99443.31;;;20.30;100.00
41947;BME280;27638;42.184;24.848;2023-06-14T00:46:46;99432.13;;;20.45;100.00
41947;BME280;27638;42.184;24.848;2023-06-14T00:49:14;99435.53;;;20.52;100.00
41947;BME280;27638;42.184;24.848;2023-06-14T00:51:41;99442.19;;;20.61;100.00
41947;BME280;27638;42.184;24.848;2023-06-14T00:54:07;99438.91;;;20.48;100.00
41947;BME280;27638;42.184;24.848;2023-06-14T00:56:32;99430.16;;;20.52;100.00
41947;BME280;27638;42.184;24.848;2023-06-14T00:58:58;99437.28;;;20.47;100.00
41947;BME280;27638;42.184;24.848;2023-06-14T01:01:24;99435.53;;;20.52;100.00
41947;BME280;27638;42.184;24.848;2023-06-14T01:03:49;99437.84;;;20.37;100.00
41947;BME280;27638;42.184;24.848;2023-06-14T01:06:30;99435.97;;;20.26;100.00
41947;BME280;27638;42.184;24.848;2023-06-14T01:09:26;99443.91;;;20.32;100.00
41947;BME280;27638;42.184;24.848;2023-06-14T01:12:07;99443.44;;;20.24;100.00
41947;BME280;27638;42.184;24.848;2023-06-14T01:14:36;99441.78;;;20.23;100.00
41947;BME280;27638;42.184;24.848;2023-06-14T01:17:02;99424.72;;;20.05;100.00
41947;BME280;27638;42.184;24.848;2023-06-14T01:19:27;99424.13;;;20.03;100.00
41947;BME280;27638;42.184;24.848;2023-06-14T01:21:55;99425.59;;;19.88;100.00
41947;BME280;27638;42.184;24.848;2023-06-14T01:24:20;99421.84;;;19.77;100.00
41947;BME280;27638;42.184;24.848;2023-06-14T01:26:53;99431.38;;;19.73;100.00
41947;BME280;27638;42.184;24.848;2023-06-14T01:29:22;99418.38;;;19.58;100.00
41947;BME280;27638;42.184;24.848;2023-06-14T01:31:47;99420.69;;;19.55;100.00
41947;BME280;27638;42.184;24.848;2023-06-14T01:34:14;99419.88;;;19.54;100.00
41947;BME280;27638;42.184;24.848;2023-06-14T01:36:41;99427.69;;;19.56;100.00
41947;BME280;27638;42.184;24.848;2023-06-14T01:39:11;99425.97;;;19.61;100.00
41947;BME280;27638;42.184;24.848;2023-06-14T01:41:39;99417.25;;;19.48;100.00
41947;BME280;27638;42.184;24.848;2023-06-14T01:44:05;99411.00;;;19.35;100.00
41947;BME280;27638;42.184;24.848;2023-06-14T01:46:31;99415.47;;;19.41;100.00
41947;BME280;27638;42.184;24.848;2023-06-14T01:48:57;99417.84;;;19.50;100.00
41947;BME280;27638;42.184;24.848;2023-06-14T01:51:22;99422.47;;;19.61;100.00
41947;BME280;27638;42.184;24.848;2023-06-14T01:53:48;99425.50;;;19.64;100.00
41947;BME280;27638;42.184;24.848;2023-06-14T01:56:13;99421.66;;;19.60;100.00
41947;BME280;27638;42.184;24.848;2023-06-14T01:58:39;99420.38;;;19.63;100.00
41947;BME280;27638;42.184;24.848;2023-06-14T02:01:05;99421.09;;;19.70;100.00
41947;BME280;27638;42.184;24.848;2023-06-14T02:03:32;99420.28;;;19.69;100.00
41947;BME280;27638;42.184;24.848;2023-06-14T02:05:58;99427.66;;;19.74;100.00
41947;BME280;27638;42.184;24.848;2023-06-14T02:08:23;99427.41;;;19.75;100.00
41947;BME280;27638;42.184;24.848;2023-06-14T02:10:49;99420.78;;;19.78;100.00
41947;BME280;27638;42.184;24.848;2023-06-14T02:13:14;99428.44;;;19.93;100.00
41947;BME280;27638;42.184;24.848;2023-06-14T02:15:40;99424.34;;;20.02;100.00
41947;BME280;27638;42.184;24.848;2023-06-14T02:18:05;99430.78;;;20.13;100.00
41947;BME280;27638;42.184;24.848;2023-06-14T02:20:30;99429.88;;;20.19;100.00
41947;BME280;27638;42.184;24.848;2023-06-14T02:22:57;99435.03;;;20.32;100.00
41947;BME280;27638;42.184;24.848;2023-06-14T02:25:22;99425.22;;;20.37;100.00
41947;BME280;27638;42.184;24.848;2023-06-14T02:27:48;99429.56;;;20.50;100.00
41947;BME280;27638;42.184;24.848;2023-06-14T02:30:13;99422.53;;;20.61;100.00
41947;BME280;27638;42.184;24.848;2023-06-14T02:32:40;99430.50;;;20.67;100.00
41947;BME280;27638;42.184;24.848;2023-06-14T02:35:08;99430.25;;;20.69;100.00
41947;BME280;27638;42.184;24.848;2023-06-14T02:37:33;99433.31;;;20.72;100.00
41947;BME280;27638;42.184;24.848;2023-06-14T02:39:59;99439.38;;;20.80;100.00
41947;BME280;27638;42.184;24.848;2023-06-14T02:42:24;99446.78;;;20.84;100.00
41947;BME280;27638;42.184;24.848;2023-06-14T02:44:50;99443.84;;;20.86;100.00
41947;BME280;27638;42.184;24.848;2023-06-14T02:47:17;99445.25;;;20.88;100.00
41947;BME280;27638;42.184;24.848;2023-06-14T02:49:43;99441.84;;;20.93;100.00
41947;BME280;27638;42.184;24.848;2023-06-14T02:52:08;99454.59;;;20.86;100.00
41947;BME280;27638;42.184;24.848;2023-06-14T02:54:34;99449.91;;;20.93;100.00
41947;BME280;27638;42.184;24.848;2023-06-14T02:56:59;99452.59;;;20.93;100.00
41947;BME280;27638;42.184;24.848;2023-06-14T02:59:25;99442.06;;;21.03;100.00
41947;BME280;27638;42.184;24.848;2023-06-14T03:01:51;99448.59;;;21.07;100.00
41947;BME280;27638;42.184;24.848;2023-06-14T03:04:17;99451.63;;;21.11;100.00
41947;BME280;27638;42.184;24.848;2023-06-14T03:06:42;99461.13;;;21.13;100.00
41947;BME280;27638;42.184;24.848;2023-06-14T03:09:09;99452.47;;;21.11;100.00
41947;BME280;27638;42.184;24.848;2023-06-14T03:11:35;99458.91;;;21.10;100.00
41947;BME280;27638;42.184;24.848;2023-06-14T03:14:01;99459.47;;;21.12;100.00
41947;BME280;27638;42.184;24.848;2023-06-14T03:16:28;99460.44;;;21.06;100.00
41947;BME280;27638;42.184;24.848;2023-06-14T03:18:55;99459.47;;;21.12;100.00
41947;BME280;27638;42.184;24.848;2023-06-14T03:21:21;99462.50;;;21.16;100.00
41947;BME280;27638;42.184;24.848;2023-06-14T03:23:47;99466.75;;;21.12;100.00
41947;BME280;27638;42.184;24.848;2023-06-14T03:26:13;99464.28;;;21.10;100.00
41947;BME280;27638;42.184;24.848;2023-06-14T03:28:39;99464.88;;;21.00;100.00
41947;BME280;27638;42.184;24.848;2023-06-14T03:31:05;99471.31;;;21.11;100.00
41947;BME280;27638;42.184;24.848;2023-06-14T03:33:30;99467.91;;;21.16;100.00
41947;BME280;27638;42.184;24.848;2023-06-14T03:35:56;99478.66;;;21.16;100.00
41947;BME280;27638;42.184;24.848;2023-06-14T03:38:22;99472.13;;;21.12;100.00
41947;BME280;27638;42.184;24.848;2023-06-14T03:40:47;99487.56;;;21.16;100.00
41947;BME280;27638;42.184;24.848;2023-06-14T03:43:13;99484.88;;;21.16;100.00
41947;BME280;27638;42.184;24.848;2023-06-14T03:45:38;99489.53;;;21.21;100.00
41947;BME280;27638;42.184;24.848;2023-06-14T03:48:04;99498.91;;;21.18;100.00
41947;BME280;27638;42.184;24.848;2023-06-14T03:50:32;99494.94;;;21.09;100.00
41947;BME280;27638;42.184;24.848;2023-06-14T03:52:57;99501.38;;;21.20;100.00
41947;BME280;27638;42.184;24.848;2023-06-14T03:55:23;99487.31;;;21.18;100.00
41947;BME280;27638;42.184;24.848;2023-06-14T03:57:51;99500.69;;;21.24;100.00
41947;BME280;27638;42.184;24.848;2023-06-14T04:00:17;99507.34;;;21.22;100.00
41947;BME280;27638;42.184;24.848;2023-06-14T04:02:43;99506.31;;;21.23;100.00
41947;BME280;27638;42.184;24.848;2023-06-14T04:05:09;99508.28;;;21.27;100.00
41947;BME280;27638;42.184;24.848;2023-06-14T04:07:35;99505.25;;;21.24;100.00
41947;BME280;27638;42.184;24.848;2023-06-14T04:10:06;99512.72;;;21.22;100.00
41947;BME280;27638;42.184;24.848;2023-06-14T04:12:33;99501.13;;;21.21;100.00
41947;BME280;27638;42.184;24.848;2023-06-14T04:14:58;99512.28;;;21.25;100.00
41947;BME280;27638;42.184;24.848;2023-06-14T04:17:24;99512.53;;;21.23;100.00
41947;BME280;27638;42.184;24.848;2023-06-14T04:19:49;99511.09;;;21.21;100.00
41947;BME280;27638;42.184;24.848;2023-06-14T04:22:14;99516.47;;;21.21;100.00
41947;BME280;27638;42.184;24.848;2023-06-14T04:24:40;99519.88;;;21.16;100.00
41947;BME280;27638;42.184;24.848;2023-06-14T04:27:07;99514.38;;;21.23;100.00
41947;BME280;27638;42.184;24.848;2023-06-14T04:29:33;99528.31;;;21.31;100.00
41947;BME280;27638;42.184;24.848;2023-06-14T04:31:58;99523.50;;;21.33;100.00
41947;BME280;27638;42.184;24.848;2023-06-14T04:34:27;99525.97;;;21.35;100.00
41947;BME280;27638;42.184;24.848;2023-06-14T04:36:59;99522.69;;;21.33;100.00
41947;BME280;27638;42.184;24.848;2023-06-14T04:39:26;99526.91;;;21.29;100.00
41947;BME280;27638;42.184;24.848;2023-06-14T04:41:52;99522.78;;;21.38;100.00
41947;BME280;27638;42.184;24.848;2023-06-14T04:44:22;99531.09;;;21.48;100.00
41947;BME280;27638;42.184;24.848;2023-06-14T04:46:55;99527.00;;;21.34;100.00
41947;BME280;27638;42.184;24.848;2023-06-14T04:49:21;99525.13;;;21.46;100.00
41947;BME280;27638;42.184;24.848;2023-06-14T04:51:48;99535.28;;;21.56;100.00
41947;BME280;27638;42.184;24.848;2023-06-14T04:54:23;99536.19;;;21.61;100.00
41947;BME280;27638;42.184;24.848;2023-06-14T04:56:50;99530.19;;;21.71;100.00
41947;BME280;27638;42.184;24.848;2023-06-14T04:59:15;99530.88;;;21.78;100.00
41947;BME280;27638;42.184;24.848;2023-06-14T05:01:42;99537.53;;;21.87;100.00
41947;BME280;27638;42.184;24.848;2023-06-14T05:04:13;99538.47;;;21.93;100.00
41947;BME280;27638;42.184;24.848;2023-06-14T05:06:38;99539.13;;;22.00;100.00
41947;BME280;27638;42.184;24.848;2023-06-14T05:09:04;99537.00;;;22.02;100.00
41947;BME280;27638;42.184;24.848;2023-06-14T05:11:29;99544.16;;;22.08;100.00
41947;BME280;27638;42.184;24.848;2023-06-14T05:13:54;99539.00;;;22.07;100.00
41947;BME280;27638;42.184;24.848;2023-06-14T05:16:20;99541.13;;;22.05;100.00
41947;BME280;27638;42.184;24.848;2023-06-14T05:18:48;99546.03;;;22.08;100.00
41947;BME280;27638;42.184;24.848;2023-06-14T05:21:13;99544.66;;;22.05;100.00
41947;BME280;27638;42.184;24.848;2023-06-14T05:23:42;99551.69;;;22.06;100.00
41947;BME280;27638;42.184;24.848;2023-06-14T05:26:09;99549.81;;;22.07;100.00
41947;BME280;27638;42.184;24.848;2023-06-14T05:28:35;99560.13;;;21.98;100.00
41947;BME280;27638;42.184;24.848;2023-06-14T05:31:01;99561.31;;;21.90;100.00
41947;BME280;27638;42.184;24.848;2023-06-14T05:33:26;99560.59;;;21.95;100.00
41947;BME280;27638;42.184;24.848;2023-06-14T05:35:52;99565.41;;;21.93;100.00
41947;BME280;27638;42.184;24.848;2023-06-14T05:38:17;99568.34;;;22.03;100.00
41947;BME280;27638;42.184;24.848;2023-06-14T05:40:42;99575.56;;;22.14;100.00
41947;BME280;27638;42.184;24.848;2023-06-14T05:43:08;99574.41;;;22.10;100.00
41947;BME280;27638;42.184;24.848;2023-06-14T05:45:33;99575.25;;;22.27;100.00
41947;BME280;27638;42.184;24.848;2023-06-14T05:47:59;99580.03;;;22.37;100.00
41947;BME280;27638;42.184;24.848;2023-06-14T05:50:24;99576.59;;;22.42;100.00
41947;BME280;27638;42.184;24.848;2023-06-14T05:52:50;99577.81;;;22.51;100.00
41947;BME280;27638;42.184;24.848;2023-06-14T05:55:16;99575.06;;;22.62;100.00
41947;BME280;27638;42.184;24.848;2023-06-14T05:57:42;99579.31;;;22.75;100.00
41947;BME280;27638;42.184;24.848;2023-06-14T06:00:08;99577.72;;;22.91;100.00
41947;BME280;27638;42.184;24.848;2023-06-14T06:02:36;99592.88;;;22.92;100.00
41947;BME280;27638;42.184;24.848;2023-06-14T06:05:02;99584.94;;;23.02;100.00
41947;BME280;27638;42.184;24.848;2023-06-14T06:07:28;99594.97;;;23.07;100.00
41947;BME280;27638;42.184;24.848;2023-06-14T06:09:53;99593.81;;;23.19;100.00
41947;BME280;27638;42.184;24.848;2023-06-14T06:12:18;99591.44;;;23.23;98.68
41947;BME280;27638;42.184;24.848;2023-06-14T06:14:44;99595.09;;;23.34;97.48
41947;BME280;27638;42.184;24.848;2023-06-14T06:17:10;99596.81;;;23.40;99.05
41947;BME280;27638;42.184;24.848;2023-06-14T06:19:35;99592.28;;;23.45;99.31
41947;BME280;27638;42.184;24.848;2023-06-14T06:22:01;99589.88;;;23.27;98.90
41947;BME280;27638;42.184;24.848;2023-06-14T06:24:27;99595.00;;;23.45;99.30
41947;BME280;27638;42.184;24.848;2023-06-14T06:26:52;99587.22;;;23.49;99.63
41947;BME280;27638;42.184;24.848;2023-06-14T06:29:17;99595.34;;;23.32;98.34
41947;BME280;27638;42.184;24.848;2023-06-14T06:31:43;99596.13;;;23.49;97.31
41947;BME280;27638;42.184;24.848;2023-06-14T06:34:08;99592.03;;;23.64;98.68
41947;BME280;27638;42.184;24.848;2023-06-14T06:36:34;99598.44;;;23.41;98.19
41947;BME280;27638;42.184;24.848;2023-06-14T06:39:00;99604.34;;;23.54;98.32
41947;BME280;27638;42.184;24.848;2023-06-14T06:41:25;99596.22;;;23.54;99.29
41947;BME280;27638;42.184;24.848;2023-06-14T06:43:52;99607.44;;;23.63;98.26
41947;BME280;27638;42.184;24.848;2023-06-14T06:46:17;99601.66;;;23.76;97.36
41947;BME280;27638;42.184;24.848;2023-06-14T06:48:44;99610.31;;;23.78;92.53
41947;BME280;27638;42.184;24.848;2023-06-14T06:51:09;99606.66;;;23.89;93.47
41947;BME280;27638;42.184;24.848;2023-06-14T06:53:34;99603.00;;;23.96;91.16
41947;BME280;27638;42.184;24.848;2023-06-14T06:56:00;99605.56;;;24.07;91.11
41947;BME280;27638;42.184;24.848;2023-06-14T06:58:25;99605.97;;;24.21;89.20
41947;BME280;27638;42.184;24.848;2023-06-14T07:00:51;99595.84;;;24.33;89.33
41947;BME280;27638;42.184;24.848;2023-06-14T07:03:16;99610.81;;;24.41;92.42
41947;BME280;27638;42.184;24.848;2023-06-14T07:05:43;99613.34;;;24.52;90.16
41947;BME280;27638;42.184;24.848;2023-06-14T07:08:08;99601.53;;;24.64;90.14
41947;BME280;27638;42.184;24.848;2023-06-14T07:10:33;99605.25;;;24.52;88.40
41947;BME280;27638;42.184;24.848;2023-06-14T07:12:59;99612.13;;;24.65;89.06
41947;BME280;27638;42.184;24.848;2023-06-14T07:15:25;99612.38;;;24.64;90.31
41947;BME280;27638;42.184;24.848;2023-06-14T07:17:51;99607.66;;;24.81;87.43
41947;BME280;27638;42.184;24.848;2023-06-14T07:20:16;99605.72;;;25.03;88.12
41947;BME280;27638;42.184;24.848;2023-06-14T07:22:42;99601.97;;;25.09;89.09
41947;BME280;27638;42.184;24.848;2023-06-14T07:25:09;99598.72;;;25.55;86.08
41947;BME280;27638;42.184;24.848;2023-06-14T07:27:37;99596.19;;;25.95;85.94
41947;BME280;27638;42.184;24.848;2023-06-14T07:30:03;99606.31;;;26.05;84.71
41947;BME280;27638;42.184;24.848;2023-06-14T07:32:29;99592.19;;;26.08;83.98
41947;BME280;27638;42.184;24.848;2023-06-14T07:34:54;99591.56;;;25.33;86.63
41947;BME280;27638;42.184;24.848;2023-06-14T07:37:20;99587.78;;;24.97;86.59
41947;BME280;27638;42.184;24.848;2023-06-14T07:39:45;99594.75;;;24.93;89.31
41947;BME280;27638;42.184;24.848;2023-06-14T07:42:11;99590.63;;;24.86;88.39
41947;BME280;27638;42.184;24.848;2023-06-14T07:44:36;99585.75;;;25.14;88.92
41947;BME280;27638;42.184;24.848;2023-06-14T07:47:01;99583.09;;;25.25;87.75
41947;BME280;27638;42.184;24.848;2023-06-14T07:49:27;99589.97;;;25.42;86.80
41947;BME280;27638;42.184;24.848;2023-06-14T07:51:52;99590.25;;;25.41;84.98
41947;BME280;27638;42.184;24.848;2023-06-14T07:54:19;99588.91;;;25.43;86.17
41947;BME280;27638;42.184;24.848;2023-06-14T07:56:44;99591.94;;;25.57;88.40
41947;BME280;27638;42.184;24.848;2023-06-14T07:59:10;99583.75;;;25.47;88.11
41947;BME280;27638;42.184;24.848;2023-06-14T08:01:35;99589.41;;;25.35;87.04
41947;BME280;27638;42.184;24.848;2023-06-14T08:04:01;99591.44;;;25.13;85.95
41947;BME280;27638;42.184;24.848;2023-06-14T08:06:27;99584.53;;;24.68;86.25
41947;BME280;27638;42.184;24.848;2023-06-14T08:08:52;99586.84;;;24.87;89.21
41947;BME280;27638;42.184;24.848;2023-06-14T08:11:18;99596.38;;;24.94;87.65
41947;BME280;27638;42.184;24.848;2023-06-14T08:13:43;99584.28;;;24.70;88.75
41947;BME280;27638;42.184;24.848;2023-06-14T08:16:09;99588.66;;;24.76;87.10
41947;BME280;27638;42.184;24.848;2023-06-14T08:18:34;99593.38;;;24.91;87.33
41947;BME280;27638;42.184;24.848;2023-06-14T08:21:00;99607.41;;;24.82;87.41
41947;BME280;27638;42.184;24.848;2023-06-14T08:23:25;99602.00;;;24.56;87.48
41947;BME280;27638;42.184;24.848;2023-06-14T08:25:51;99604.47;;;24.89;87.29
41947;BME280;27638;42.184;24.848;2023-06-14T08:28:16;99605.72;;;25.03;86.71
41947;BME280;27638;42.184;24.848;2023-06-14T08:30:42;99602.59;;;25.22;84.90
41947;BME280;27638;42.184;24.848;2023-06-14T08:33:08;99607.78;;;25.28;85.47
41947;BME280;27638;42.184;24.848;2023-06-14T08:35:33;99611.44;;;25.07;83.89
41947;BME280;27638;42.184;24.848;2023-06-14T08:38:02;99617.78;;;25.23;87.24
41947;BME280;27638;42.184;24.848;2023-06-14T08:40:30;99618.38;;;25.35;85.30
41947;BME280;27638;42.184;24.848;2023-06-14T08:42:55;99628.72;;;25.38;82.48
41947;BME280;27638;42.184;24.848;2023-06-14T08:45:22;99618.88;;;25.27;87.63
41947;BME280;27638;42.184;24.848;2023-06-14T08:47:51;99619.56;;;25.07;82.30
41947;BME280;27638;42.184;24.848;2023-06-14T08:50:24;99611.28;;;25.24;85.83
41947;BME280;27638;42.184;24.848;2023-06-14T08:52:56;99621.78;;;25.57;81.35
41947;BME280;27638;42.184;24.848;2023-06-14T08:55:26;99627.31;;;25.72;80.69
41947;BME280;27638;42.184;24.848;2023-06-14T08:57:56;99619.75;;;25.85;78.12
41947;BME280;27638;42.184;24.848;2023-06-14T09:00:26;99613.34;;;26.06;81.72
41947;BME280;27638;42.184;24.848;2023-06-14T09:02:53;99621.00;;;26.24;79.56
41947;BME280;27638;42.184;24.848;2023-06-14T09:05:26;99611.56;;;26.37;77.52
41947;BME280;27638;42.184;24.848;2023-06-14T09:07:53;99609.69;;;26.53;76.38
41947;BME280;27638;42.184;24.848;2023-06-14T09:10:22;99605.88;;;26.54;78.38
41947;BME280;27638;42.184;24.848;2023-06-14T09:12:47;99602.63;;;26.47;78.62
41947;BME280;27638;42.184;24.848;2023-06-14T09:15:13;99609.13;;;26.51;78.31
41947;BME280;27638;42.184;24.848;2023-06-14T09:17:39;99597.47;;;26.55;75.14
41947;BME280;27638;42.184;24.848;2023-06-14T09:20:06;99601.28;;;26.59;77.15
41947;BME280;27638;42.184;24.848;2023-06-14T09:22:35;99588.78;;;26.63;74.39
41947;BME280;27638;42.184;24.848;2023-06-14T09:25:01;99597.47;;;26.60;75.59
41947;BME280;27638;42.184;24.848;2023-06-14T09:27:27;99602.09;;;26.65;75.89
41947;BME280;27638;42.184;24.848;2023-06-14T09:29:53;99590.41;;;26.80;77.56
41947;BME280;27638;42.184;24.848;2023-06-14T09:32:20;99587.41;;;26.86;76.32
41947;BME280;27638;42.184;24.848;2023-06-14T09:34:46;99583.63;;;26.82;75.54
41947;BME280;27638;42.184;24.848;2023-06-14T09:37:11;99585.25;;;26.68;73.49
41947;BME280;27638;42.184;24.848;2023-06-14T09:39:52;99580.91;;;26.67;74.90
41947;BME280;27638;42.184;24.848;2023-06-14T09:42:18;99573.03;;;26.76;74.58
41947;BME280;27638;42.184;24.848;2023-06-14T09:44:47;99574.94;;;26.80;76.76
41947;BME280;27638;42.184;24.848;2023-06-14T09:47:14;99568.94;;;26.93;76.96
41947;BME280;27638;42.184;24.848;2023-06-14T09:49:40;99571.94;;;26.97;74.09
41947;BME280;27638;42.184;24.848;2023-06-14T09:52:06;99568.44;;;27.12;76.91
41947;BME280;27638;42.184;24.848;2023-06-14T09:54:40;99571.66;;;27.29;74.66
41947;BME280;27638;42.184;24.848;2023-06-14T09:57:07;99574.88;;;27.41;74.76
41947;BME280;27638;42.184;24.848;2023-06-14T09:59:35;99576.78;;;27.41;73.72
41947;BME280;27638;42.184;24.848;2023-06-14T10:02:07;99568.91;;;27.34;72.81
41947;BME280;27638;42.184;24.848;2023-06-14T10:04:34;99568.72;;;27.05;72.79
41947;BME280;27638;42.184;24.848;2023-06-14T10:07:00;99558.09;;;27.03;72.19
41947;BME280;27638;42.184;24.848;2023-06-14T10:09:28;99547.66;;;25.99;74.12
41947;BME280;27638;42.184;24.848;2023-06-14T10:11:55;99560.44;;;26.03;75.71
41947;BME280;27638;42.184;24.848;2023-06-14T10:14:21;99556.13;;;26.18;74.50
41947;BME280;27638;42.184;24.848;2023-06-14T10:17:10;99553.97;;;26.25;74.30
41947;BME280;27638;42.184;24.848;2023-06-14T10:19:44;99552.13;;;26.35;73.27
41947;BME280;27638;42.184;24.848;2023-06-14T10:22:23;99555.09;;;26.39;74.25
41947;BME280;27638;42.184;24.848;2023-06-14T10:24:51;99554.50;;;26.27;74.84
41947;BME280;27638;42.184;24.848;2023-06-14T10:27:16;99551.50;;;26.08;77.07
41947;BME280;27638;42.184;24.848;2023-06-14T10:32:23;99555.38;;;26.43;78.37
41947;BME280;27638;42.184;24.848;2023-06-14T10:35:07;99550.75;;;26.63;78.09
41947;BME280;27638;42.184;24.848;2023-06-14T10:37:34;99553.47;;;26.79;77.98
41947;BME280;27638;42.184;24.848;2023-06-14T10:40:00;99547.22;;;26.88;76.58
41947;BME280;27638;42.184;24.848;2023-06-14T10:42:32;99551.84;;;27.03;76.21
41947;BME280;27638;42.184;24.848;2023-06-14T10:44:57;99542.34;;;27.11;75.00
41947;BME280;27638;42.184;24.848;2023-06-14T10:47:33;99537.16;;;27.19;74.57
41947;BME280;27638;42.184;24.848;2023-06-14T10:50:10;99528.75;;;27.16;73.26
41947;BME280;27638;42.184;24.848;2023-06-14T10:52:41;99540.44;;;27.16;72.41
41947;BME280;27638;42.184;24.848;2023-06-14T10:55:14;99544.47;;;27.24;73.30
41947;BME280;27638;42.184;24.848;2023-06-14T10:57:50;99529.22;;;27.33;72.53
41947;BME280;27638;42.184;24.848;2023-06-14T11:00:18;99540.66;;;27.35;72.10
41947;BME280;27638;42.184;24.848;2023-06-14T11:05:26;99527.34;;;27.28;73.87
41947;BME280;27638;42.184;24.848;2023-06-14T11:10:44;99522.50;;;27.15;72.78
41947;BME280;27638;42.184;24.848;2023-06-14T11:13:13;99525.78;;;27.07;75.41
41947;BME280;27638;42.184;24.848;2023-06-14T11:15:44;99518.97;;;27.10;75.54
41947;BME280;27638;42.184;24.848;2023-06-14T11:18:12;99516.00;;;27.06;74.45
41947;BME280;27638;42.184;24.848;2023-06-14T11:20:39;99520.88;;;27.14;74.35
41947;BME280;27638;42.184;24.848;2023-06-14T11:23:05;99515.69;;;27.13;75.43
41947;BME280;27638;42.184;24.848;2023-06-14T11:25:30;99520.59;;;27.16;77.33
41947;BME280;27638;42.184;24.848;2023-06-14T11:27:56;99521.94;;;27.03;77.40
41947;BME280;27638;42.184;24.848;2023-06-14T11:30:23;99522.47;;;27.20;74.78
41947;BME280;27638;42.184;24.848;2023-06-14T11:32:50;99511.84;;;27.29;72.61
41947;BME280;27638;42.184;24.848;2023-06-14T11:35:16;99509.47;;;27.07;73.49
41947;BME280;27638;42.184;24.848;2023-06-14T11:37:42;99512.72;;;27.04;74.50
41947;BME280;27638;42.184;24.848;2023-06-14T11:40:10;99517.34;;;26.83;77.42
41947;BME280;27638;42.184;24.848;2023-06-14T11:42:37;99512.16;;;26.92;74.41
41947;BME280;27638;42.184;24.848;2023-06-14T11:45:06;99510.31;;;26.52;75.21
41947;BME280;27638;42.184;24.848;2023-06-14T11:47:33;99508.41;;;26.47;76.15
41947;BME280;27638;42.184;24.848;2023-06-14T11:49:59;99502.72;;;26.38;77.08
41947;BME280;27638;42.184;24.848;2023-06-14T11:52:25;99500.53;;;26.51;76.71
41947;BME280;27638;42.184;24.848;2023-06-14T11:54:50;99489.66;;;26.71;78.55
41947;BME280;27638;42.184;24.848;2023-06-14T11:57:18;99485.84;;;26.62;77.38
41947;BME280;27638;42.184;24.848;2023-06-14T11:59:44;99476.06;;;26.66;76.25
41947;BME280;27638;42.184;24.848;2023-06-14T12:02:10;99483.13;;;26.67;76.37
41947;BME280;27638;42.184;24.848;2023-06-14T12:04:41;99483.13;;;26.67;78.34
41947;BME280;27638;42.184;24.848;2023-06-14T12:07:13;99477.94;;;26.81;77.31
41947;BME280;27638;42.184;24.848;2023-06-14T12:12:26;99488.84;;;26.70;80.22
41947;BME280;27638;42.184;24.848;2023-06-14T12:14:53;99478.22;;;26.79;79.27
41947;BME280;27638;42.184;24.848;2023-06-14T12:17:19;99483.38;;;26.81;78.05
41947;BME280;27638;42.184;24.848;2023-06-14T12:19:46;99487.19;;;26.75;78.40
41947;BME280;27638;42.184;24.848;2023-06-14T12:22:13;99487.75;;;26.66;82.44
41947;BME280;27638;42.184;24.848;2023-06-14T12:24:39;99476.91;;;26.51;75.80
41947;BME280;27638;42.184;24.848;2023-06-14T12:27:05;99479.09;;;26.44;74.18
41947;BME280;27638;42.184;24.848;2023-06-14T12:29:31;99470.94;;;26.34;75.21
41947;BME280;27638;42.184;24.848;2023-06-14T12:31:57;99466.84;;;26.26;74.49
41947;BME280;27638;42.184;24.848;2023-06-14T12:34:26;99456.53;;;26.28;79.66
41947;BME280;27638;42.184;24.848;2023-06-14T12:36:55;99453.31;;;26.42;81.28
41947;BME280;27638;42.184;24.848;2023-06-14T12:39:21;99459.53;;;26.52;82.95
41947;BME280;27638;42.184;24.848;2023-06-14T12:41:46;99449.22;;;26.34;80.11
41947;BME280;27638;42.184;24.848;2023-06-14T12:44:12;99451.13;;;26.33;80.59
41947;BME280;27638;42.184;24.848;2023-06-14T12:46:39;99453.84;;;26.33;79.31
41947;BME280;27638;42.184;24.848;2023-06-14T12:49:05;99450.56;;;26.26;81.46
41947;BME280;27638;42.184;24.848;2023-06-14T12:51:32;99450.28;;;26.07;80.22
41947;BME280;27638;42.184;24.848;2023-06-14T12:53:57;99440.25;;;26.18;81.27